Time;durP1;ratioP1;P1;durP2;ratioP2;P2;SDS_P1;SDS_P2;PMS_P1;PMS_P2;Temp;Humidity;BMP_temperature;BMP_pressure;BME280_temperature;BME280_humidity;BME280_pressure;Samples;Min_cycle;Max_cycle;Signal;HPM_P1;HPM_P2
2022/11/08 00:02:54;;;;;;;0.10;0.10;;;;;;;12.44;61.42;97949.56;8414619;28;20231;-75
2022/11/08 00:15:37;;;;;;;0.10;0.10;;;;;;;12.32;61.82;97939.81;8414510;28;20218;-74
2022/11/08 00:19:42;;;;;;;0.10;0.10;;;;;;;12.31;62.05;97946.75;8414374;28;20349;-74
2022/11/08 00:23:45;;;;;;;0.10;0.10;;;;;;;12.32;62.10;97942.41;8414355;28;20238;-74
2022/11/08 00:27:48;;;;;;;0.10;0.10;;;;;;;12.27;62.08;97941.81;8414708;28;20246;-74
2022/11/08 00:31:51;;;;;;;0.10;0.10;;;;;;;12.17;62.28;97946.63;8414107;28;20239;-74
2022/11/08 00:35:58;;;;;;;0.10;0.10;;;;;;;12.26;62.35;97948.75;8413206;28;20265;-75
2022/11/08 00:40:01;;;;;;;0.10;0.10;;;;;;;12.21;61.91;97945.56;8414053;28;20272;-74
2022/11/08 00:44:04;;;;;;;0.10;0.10;;;;;;;11.95;63.20;97944.28;8413835;28;20290;-74
2022/11/08 00:48:07;;;;;;;0.10;0.10;;;;;;;12.16;62.26;97944.09;8413403;28;20227;-74
2022/11/08 00:52:11;;;;;;;0.10;0.10;;;;;;;12.12;61.78;97949.44;8413498;28;20273;-74
2022/11/08 00:56:14;;;;;;;0.10;0.10;;;;;;;12.12;62.01;97957.22;8413300;28;20234;-73
2022/11/08 01:00:18;;;;;;;0.10;0.10;;;;;;;11.97;62.07;97947.63;8413263;28;20223;-74
2022/11/08 01:04:21;;;;;;;0.10;0.10;;;;;;;11.93;61.95;97935.72;8413352;28;20552;-74
2022/11/08 01:08:26;;;;;;;0.10;0.10;;;;;;;11.95;61.78;97944.28;8413475;28;20254;-75
2022/11/08 01:12:28;;;;;;;0.10;0.10;;;;;;;11.89;62.39;97942.81;8413088;28;20237;-74
2022/11/08 01:16:32;;;;;;;0.10;0.10;;;;;;;11.92;61.88;97937.50;8413156;28;20242;-74
2022/11/08 01:20:38;;;;;;;0.10;0.10;;;;;;;11.92;61.74;97931.47;8413327;28;20230;-74
2022/11/08 01:24:42;;;;;;;0.10;0.10;;;;;;;11.88;61.74;97933.34;8413285;28;20383;-74
2022/11/08 01:28:45;;;;;;;0.10;0.10;;;;;;;11.87;61.81;97936.84;8413424;28;20235;-74
2022/11/08 01:32:48;;;;;;;0.10;0.10;;;;;;;11.86;61.61;97935.19;8412961;28;20223;-74
2022/11/08 01:36:51;;;;;;;0.10;0.10;;;;;;;11.59;62.91;97929.56;8412684;28;20291;-74
2022/11/08 01:40:55;;;;;;;0.10;0.10;;;;;;;11.77;61.99;97934.81;8412385;28;20454;-76
2022/11/08 01:44:58;;;;;;;0.10;0.10;;;;;;;11.83;61.81;97930.13;8414178;28;20534;-74
2022/11/08 01:49:40;;;;;;;0.10;0.10;;;;;;;11.71;61.60;97915.19;8419132;28;20252;-74
2022/11/08 01:53:43;;;;;;;0.10;0.10;;;;;;;11.50;62.69;97917.91;8418585;28;20306;-74
2022/11/08 01:57:52;;;;;;;0.10;0.10;;;;;;;11.69;62.15;97912.66;8419027;28;20423;-74
2022/11/08 02:01:55;;;;;;;0.10;0.10;;;;;;;11.72;61.91;97902.13;8418293;28;20234;-74
2022/11/08 02:05:58;;;;;;;0.10;0.10;;;;;;;11.62;61.84;97910.44;8418577;28;20302;-74
2022/11/08 02:10:03;;;;;;;0.10;0.10;;;;;;;11.46;62.63;97898.25;8418365;28;20432;-74
2022/11/08 02:14:08;;;;;;;0.10;0.10;;;;;;;11.64;62.21;97887.88;8418292;28;20304;-74
2022/11/08 02:18:12;;;;;;;0.10;0.10;;;;;;;11.45;62.13;97882.75;8418354;28;20227;-74
2022/11/08 02:22:23;;;;;;;0.10;0.10;;;;;;;11.52;62.30;97884.97;8417555;28;20230;-74
2022/11/08 02:26:30;;;;;;;0.10;0.10;;;;;;;11.64;61.58;97882.69;8417724;28;20231;-75
2022/11/08 02:30:33;;;;;;;0.10;0.10;;;;;;;11.48;62.04;97873.06;8417883;28;20230;-74
2022/11/08 02:34:39;;;;;;;0.10;0.10;;;;;;;11.56;61.59;97870.09;8417751;28;20238;-75
2022/11/08 02:38:44;;;;;;;0.10;0.10;;;;;;;11.51;61.39;97862.53;8417737;28;20243;-74
2022/11/08 02:42:49;;;;;;;0.10;0.10;;;;;;;11.63;61.34;97857.66;8417464;28;20242;-74
2022/11/08 02:46:52;;;;;;;0.10;0.10;;;;;;;11.53;61.73;97865.06;8417493;28;20238;-74
2022/11/08 02:50:54;;;;;;;0.10;0.10;;;;;;;11.24;62.86;97862.13;8416642;28;20526;-74
2022/11/08 02:54:57;;;;;;;0.10;0.10;;;;;;;11.33;62.28;97863.47;8416487;28;20526;-74
2022/11/08 02:59:01;;;;;;;0.10;0.10;;;;;;;11.24;62.78;97864.72;8416706;28;20296;-75
2022/11/08 03:03:05;;;;;;;0.10;0.10;;;;;;;11.26;62.16;97864.66;8416948;28;20235;-74
2022/11/08 03:07:08;;;;;;;0.10;0.10;;;;;;;11.07;63.37;97862.94;8416763;28;20268;-74
2022/11/08 03:11:10;;;;;;;0.10;0.10;;;;;;;10.68;64.42;97871.69;8416462;28;20242;-74
2022/11/08 03:15:14;;;;;;;0.10;0.10;;;;;;;10.79;65.01;97863.41;8416483;28;20299;-74
2022/11/08 03:19:17;;;;;;;0.10;0.10;;;;;;;11.21;62.75;97869.22;8416287;28;20231;-74
2022/11/08 03:23:20;;;;;;;0.10;0.10;;;;;;;10.98;63.06;97863.38;8415618;28;20268;-74
2022/11/08 03:27:23;;;;;;;0.10;0.10;;;;;;;11.07;63.22;97855.19;8416010;28;20222;-74
2022/11/08 03:31:27;;;;;;;0.10;0.10;;;;;;;11.19;62.70;97860.69;8415855;28;20230;-74
2022/11/08 03:35:30;;;;;;;0.10;0.10;;;;;;;10.94;63.03;97854.09;8415433;28;20295;-74
2022/11/08 03:39:33;;;;;;;0.10;0.10;;;;;;;10.79;63.59;97860.00;8415422;28;20512;-74
2022/11/08 03:43:35;;;;;;;0.10;0.10;;;;;;;10.98;63.15;97855.63;8415558;28;20230;-74
2022/11/08 03:47:39;;;;;;;0.10;0.10;;;;;;;11.02;63.00;97864.91;8415182;28;20230;-74
2022/11/08 03:51:42;;;;;;;0.10;0.10;;;;;;;10.91;63.19;97868.03;8415320;28;20234;-74
2022/11/08 03:55:45;;;;;;;0.10;0.10;;;;;;;10.65;63.95;97871.84;8414914;28;20234;-74
2022/11/08 03:59:48;;;;;;;0.10;0.10;;;;;;;10.84;63.53;97866.63;8415051;28;20231;-74
2022/11/08 04:03:52;;;;;;;0.10;0.10;;;;;;;10.82;63.17;97860.69;8414781;28;20248;-74
2022/11/08 04:07:55;;;;;;;0.10;0.10;;;;;;;10.94;62.20;97852.31;8413835;28;20294;-74
2022/11/08 04:16:17;;;;;;;0.10;0.10;;;;;;;10.84;62.67;97858.88;8414550;28;20242;-74
2022/11/08 04:24:42;;;;;;;0.10;0.10;;;;;;;10.43;64.12;97858.19;8413781;28;20530;-74
2022/11/08 04:28:45;;;;;;;0.10;0.10;;;;;;;10.73;63.03;97850.75;8414261;28;20529;-74
2022/11/08 04:32:47;;;;;;;0.10;0.10;;;;;;;10.66;62.56;97854.53;8413945;28;20295;-74
2022/11/08 04:36:52;;;;;;;0.10;0.10;;;;;;;10.29;64.44;97849.25;8414063;28;20233;-74
2022/11/08 04:40:59;;;;;;;0.10;0.10;;;;;;;10.33;64.24;97848.25;8413382;28;20254;-74
2022/11/08 04:45:02;;;;;;;0.10;0.10;;;;;;;10.57;63.31;97848.06;8413801;28;20239;-74
2022/11/08 04:49:05;;;;;;;0.10;0.10;;;;;;;10.70;62.38;97836.22;8413694;28;20227;-74
2022/11/08 04:53:09;;;;;;;0.10;0.10;;;;;;;10.58;62.60;97834.19;8413371;28;20479;-74
2022/11/08 04:57:12;;;;;;;0.10;0.10;;;;;;;10.10;64.71;97828.53;8413461;28;20234;-74
2022/11/08 05:01:16;;;;;;;0.10;0.10;;;;;;;9.64;65.66;97834.91;8413728;28;20235;-74
2022/11/08 05:05:19;;;;;;;0.10;0.10;;;;;;;10.11;65.07;97831.97;8412866;28;20230;-74
2022/11/08 05:09:23;;;;;;;0.10;0.10;;;;;;;10.34;63.76;97823.22;8413323;28;20251;-74
2022/11/08 05:13:26;;;;;;;0.10;0.10;;;;;;;9.87;66.07;97818.38;8413171;28;20413;-74
2022/11/08 05:17:29;;;;;;;0.10;0.10;;;;;;;9.95;64.90;97819.72;8412710;28;20238;-75
2022/11/08 05:25:54;;;;;;;0.10;0.10;;;;;;;9.24;67.15;97811.56;8419431;28;20428;-74
2022/11/08 05:29:57;;;;;;;0.10;0.10;;;;;;;9.36;67.92;97813.63;8419649;28;20233;-74
2022/11/08 05:34:00;;;;;;;0.10;0.10;;;;;;;9.75;65.67;97815.44;8420010;28;20239;-74
2022/11/08 05:38:03;;;;;;;0.10;0.10;;;;;;;9.58;66.51;97804.97;8419441;28;20522;-74
2022/11/08 05:42:07;;;;;;;0.10;0.10;;;;;;;9.53;66.69;97805.16;8419423;28;20253;-74
2022/11/08 05:46:10;;;;;;;0.10;0.10;;;;;;;9.74;66.75;97807.72;8419466;28;20556;-72
2022/11/08 05:50:13;;;;;;;0.10;0.10;;;;;;;9.26;67.93;97806.34;8419167;28;20526;-75
2022/11/08 05:54:21;;;;;;;0.10;0.10;;;;;;;9.73;65.72;97798.31;8418987;28;20428;-72
2022/11/08 05:58:25;;;;;;;0.10;0.10;;;;;;;9.41;66.94;97803.09;8418811;28;20415;-73
2022/11/08 06:02:28;;;;;;;0.10;0.10;;;;;;;9.53;66.80;97797.41;8418692;28;20387;-72
2022/11/08 06:06:33;;;;;;;0.10;0.10;;;;;;;9.74;65.53;97797.38;8418647;28;20235;-73
2022/11/08 06:10:36;;;;;;;0.10;0.10;;;;;;;9.90;64.40;97798.41;8418241;28;20238;-73
2022/11/08 06:14:40;;;;;;;0.10;0.10;;;;;;;9.91;64.85;97797.47;8418021;28;20413;-73
2022/11/08 06:18:44;;;;;;;0.10;0.10;;;;;;;9.93;64.95;97807.75;8417871;28;20530;-74
2022/11/08 06:22:47;;;;;;;0.10;0.10;;;;;;;9.88;64.95;97810.56;8417784;28;20565;-73
2022/11/08 06:26:49;;;;;;;0.10;0.10;;;;;;;10.03;64.41;97814.19;8417202;28;20245;-73
2022/11/08 06:30:54;;;;;;;0.10;0.10;;;;;;;9.47;65.68;97820.94;8416282;28;20238;-73
2022/11/08 06:34:56;;;;;;;0.10;0.10;;;;;;;9.92;64.45;97806.94;8416866;28;20249;-74
2022/11/08 06:38:59;;;;;;;0.10;0.10;;;;;;;10.01;64.84;97817.78;8416940;28;20616;-73
2022/11/08 06:43:02;;;;;;;0.10;0.10;;;;;;;10.14;64.38;97819.72;8416934;28;20231;-73
2022/11/08 06:47:06;;;;;;;0.10;0.10;;;;;;;10.15;63.98;97824.00;8417245;28;20296;-73
2022/11/08 06:51:09;;;;;;;0.10;0.10;;;;;;;10.12;63.67;97813.78;8417012;28;20234;-73
2022/11/08 06:55:11;;;;;;;0.10;0.10;;;;;;;9.73;65.89;97806.06;8415729;28;20521;-73
2022/11/08 06:59:14;;;;;;;0.10;0.10;;;;;;;10.09;64.22;97802.72;8416375;28;20234;-73
2022/11/08 07:03:18;;;;;;;0.10;0.10;;;;;;;10.31;63.58;97810.41;8416213;28;20231;-73
2022/11/08 07:07:22;;;;;;;0.10;0.10;;;;;;;10.15;64.50;97805.06;8415969;28;20234;-73
2022/11/08 07:11:24;;;;;;;0.10;0.10;;;;;;;10.24;63.74;97807.22;8416007;28;20241;-73
2022/11/08 07:15:28;;;;;;;0.10;0.10;;;;;;;10.02;64.29;97815.13;8415753;28;20233;-73
2022/11/08 07:19:32;;;;;;;0.10;0.10;;;;;;;10.03;64.09;97811.59;8415572;28;20239;-74
2022/11/08 07:23:35;;;;;;;0.10;0.10;;;;;;;10.12;64.35;97808.63;8415352;28;20234;-73
2022/11/08 07:27:37;;;;;;;0.10;0.10;;;;;;;10.34;63.69;97807.69;8415154;28;20234;-73
2022/11/08 07:31:40;;;;;;;0.10;0.10;;;;;;;10.50;63.35;97813.00;8415340;28;20235;-72
2022/11/08 07:35:46;;;;;;;0.10;0.10;;;;;;;10.91;61.90;97810.22;8415164;28;20530;-73
2022/11/08 07:39:49;;;;;;;0.10;0.10;;;;;;;10.74;63.12;97819.63;8415051;28;20242;-73
2022/11/08 07:43:52;;;;;;;0.10;0.10;;;;;;;11.38;61.55;97817.38;8413433;28;20237;-73
2022/11/08 07:47:58;;;;;;;0.10;0.10;;;;;;;12.23;57.92;97813.06;8414697;28;20230;-73
2022/11/08 07:52:02;;;;;;;0.10;0.10;;;;;;;12.65;56.71;97804.69;8414457;28;20234;-74
2022/11/08 07:56:05;;;;;;;0.10;0.10;;;;;;;12.68;56.51;97809.72;8414150;28;20267;-73
2022/11/08 08:00:09;;;;;;;0.10;0.10;;;;;;;13.00;56.00;97807.06;8414193;28;20227;-73
2022/11/08 08:04:12;;;;;;;0.10;0.10;;;;;;;12.59;56.13;97805.03;8413996;28;20238;-73
2022/11/08 08:08:16;;;;;;;0.10;0.10;;;;;;;12.83;56.78;97804.59;8414123;28;20222;-72
2022/11/08 08:12:19;;;;;;;0.10;0.10;;;;;;;13.24;54.47;97810.03;8413716;28;20284;-73
2022/11/08 08:16:22;;;;;;;0.10;0.10;;;;;;;13.28;57.11;97808.09;8413402;28;20234;-73
2022/11/08 08:20:25;;;;;;;0.10;0.10;;;;;;;14.64;61.81;97808.63;8414058;28;20234;-74
2022/11/08 08:24:29;;;;;;;0.10;0.10;;;;;;;13.72;55.39;97819.47;8413784;28;20223;-74
2022/11/08 08:28:32;;;;;;;0.10;0.10;;;;;;;14.07;53.57;97823.41;8413528;28;20235;-74
2022/11/08 08:32:35;;;;;;;0.10;0.10;;;;;;;14.64;51.56;97806.88;8413892;28;20415;-73
2022/11/08 08:36:37;;;;;;;0.10;0.10;;;;;;;14.19;53.93;97802.75;8413614;28;20254;-73
2022/11/08 08:40:41;;;;;;;0.00;0.00;;;;;;;14.63;52.36;97802.59;8413527;28;20223;-73
2022/11/08 08:44:44;;;;;;;0.10;0.10;;;;;;;14.07;54.36;97804.34;8413399;28;20231;-73
2022/11/08 08:48:47;;;;;;;0.00;0.00;;;;;;;14.11;53.95;97795.41;8413592;28;20534;-72
2022/11/08 08:52:49;;;;;;;0.00;0.00;;;;;;;13.05;56.31;97799.03;8413242;28;20230;-72
2022/11/08 08:56:54;;;;;;;0.10;0.10;;;;;;;13.87;53.71;97797.72;8412370;28;20526;-73
2022/11/08 09:01:01;;;;;;;0.10;0.10;;;;;;;14.44;52.19;97802.06;8413040;28;20235;-73
2022/11/08 09:05:23;;;;;;;0.00;0.00;;;;;;;14.26;53.47;97797.06;8412614;28;20226;-72
2022/11/08 09:09:26;;;;;;;0.10;0.10;;;;;;;13.86;54.21;97796.91;8412779;28;20226;-72
2022/11/08 09:13:31;;;;;;;0.10;0.10;;;;;;;15.01;51.67;97791.47;8413318;28;20254;-72
2022/11/08 09:17:34;;;;;;;0.10;0.10;;;;;;;14.18;52.68;97795.84;8412765;28;20235;-72
2022/11/08 09:21:37;;;;;;;0.10;0.10;;;;;;;14.36;53.53;97799.94;8412926;28;20234;-73
2022/11/08 09:25:40;;;;;;;0.00;0.00;;;;;;;14.36;53.26;97807.75;8413002;28;20241;-73
2022/11/08 09:29:44;;;;;;;0.00;0.00;;;;;;;14.79;51.76;97807.69;8412932;28;20226;-72
2022/11/08 09:33:49;;;;;;;0.00;0.00;;;;;;;14.31;52.76;97806.34;8412345;28;20227;-73
2022/11/08 09:37:53;;;;;;;0.00;0.00;;;;;;;14.49;52.61;97794.78;8411956;28;20223;-73
2022/11/08 09:42:08;;;;;;;0.10;0.10;;;;;;;15.04;50.80;97790.41;8412540;28;20231;-73
2022/11/08 09:46:18;;;;;;;0.00;0.00;;;;;;;15.90;48.79;97789.94;8412486;28;20258;-73
2022/11/08 09:50:23;;;;;;;0.00;0.00;;;;;;;16.03;47.79;97780.31;8412453;28;20456;-73
2022/11/08 09:54:28;;;;;;;0.00;0.00;;;;;;;16.47;48.20;97783.34;8412364;28;20553;-73
2022/11/08 09:58:34;;;;;;;0.00;0.00;;;;;;;16.20;48.39;97792.19;8412010;28;20238;-73
2022/11/08 10:02:38;;;;;;;0.10;0.10;;;;;;;16.64;46.91;97791.75;8412086;28;20234;-74
2022/11/08 10:06:54;;;;;;;0.10;0.10;;;;;;;15.93;47.18;97799.31;8414259;28;20235;-73
2022/11/08 10:11:15;;;;;;;0.00;0.00;;;;;;;15.04;49.63;97790.41;8417733;28;20230;-73
2022/11/08 10:15:25;;;;;;;0.00;0.00;;;;;;;14.11;52.13;97795.41;8417740;28;20231;-73
2022/11/08 10:19:49;;;;;;;0.10;0.10;;;;;;;14.77;50.55;97786.06;8417791;28;20237;-73
2022/11/08 10:23:55;;;;;;;0.00;0.00;;;;;;;15.09;50.01;97783.16;8417697;28;20231;-73
2022/11/08 10:28:00;;;;;;;0.00;0.00;;;;;;;14.91;50.32;97782.59;8417076;28;20234;-73
2022/11/08 10:32:11;;;;;;;0.00;0.00;;;;;;;14.88;50.89;97789.75;8417471;28;20231;-73
2022/11/08 10:36:21;;;;;;;0.00;0.00;;;;;;;14.60;51.17;97796.72;8417511;28;20545;-73
2022/11/08 10:40:34;;;;;;;0.10;0.10;;;;;;;14.65;51.11;97782.47;8417290;28;20304;-73
2022/11/08 10:44:38;;;;;;;0.10;0.10;;;;;;;14.95;50.62;97780.63;8417131;28;20414;-73
2022/11/08 10:48:40;;;;;;;0.10;0.10;;;;;;;14.68;51.40;97785.81;8417130;28;20258;-73
2022/11/08 10:52:48;;;;;;;0.10;0.10;;;;;;;14.91;50.46;97766.94;8417459;28;20238;-73
2022/11/08 10:56:55;;;;;;;0.00;0.00;;;;;;;15.66;49.29;97753.25;8417351;28;20338;-73
2022/11/08 11:01:03;;;;;;;0.10;0.10;;;;;;;15.55;49.65;97737.50;8416536;28;20394;-73
2022/11/08 11:05:26;;;;;;;0.10;0.10;;;;;;;15.85;48.86;97747.63;8416983;28;20238;-74
2022/11/08 11:09:37;;;;;;;0.00;0.00;;;;;;;15.77;48.58;97750.78;8416477;28;20235;-73
2022/11/08 11:13:39;;;;;;;0.00;0.00;;;;;;;16.20;47.88;97737.34;8417073;28;20246;-74
2022/11/08 11:17:44;;;;;;;0.00;0.00;;;;;;;15.93;48.99;97745.31;8414813;28;20245;-74
2022/11/08 11:21:51;;;;;;;0.00;0.00;;;;;;;15.63;49.14;97745.63;8414748;28;20237;-74
2022/11/08 11:25:55;;;;;;;0.07;0.07;;;;;;;15.64;49.44;97744.69;8414347;28;20258;-73
2022/11/08 11:30:21;;;;;;;0.00;0.00;;;;;;;16.19;48.70;97740.88;8414623;28;20239;-74
2022/11/08 11:34:33;;;;;;;0.03;0.03;;;;;;;16.10;48.08;97732.88;8414449;28;20246;-74
2022/11/08 11:38:39;;;;;;;0.00;0.00;;;;;;;16.55;48.01;97736.59;8414605;28;20254;-76
2022/11/08 11:42:48;;;;;;;0.00;0.00;;;;;;;16.56;47.79;97734.78;8414322;28;20235;-74
2022/11/08 11:46:53;;;;;;;0.10;0.10;;;;;;;16.21;48.74;97728.53;8414575;28;20239;-74
2022/11/08 11:50:57;;;;;;;0.00;0.00;;;;;;;16.64;47.79;97727.25;8413890;28;20623;-74
2022/11/08 11:55:01;;;;;;;0.00;0.00;;;;;;;16.71;47.89;97722.38;8413872;28;20298;-74
2022/11/08 11:59:27;;;;;;;0.00;0.00;;;;;;;16.15;48.15;97710.69;8414013;28;20234;-74
2022/11/08 12:03:50;;;;;;;0.00;0.00;;;;;;;16.43;48.08;97695.66;8413600;28;20226;-74
2022/11/08 12:08:01;;;;;;;0.10;0.10;;;;;;;16.69;47.49;97682.47;8413114;28;20227;-74
2022/11/08 12:12:12;;;;;;;0.00;0.00;;;;;;;16.64;48.39;97690.66;8413318;28;20246;-74
2022/11/08 12:16:20;;;;;;;0.00;0.00;;;;;;;16.93;47.67;97703.38;8413690;28;20242;-73
2022/11/08 12:20:39;;;;;;;0.00;0.00;;;;;;;16.56;48.13;97683.38;8413628;28;20237;-77
2022/11/08 12:24:48;;;;;;;0.00;0.00;;;;;;;16.75;48.14;97682.00;8412607;28;20469;-72
2022/11/08 12:29:06;;;;;;;0.00;0.00;;;;;;;16.76;48.38;97678.44;8413102;28;20430;-75
2022/11/08 12:33:26;;;;;;;0.00;0.00;;;;;;;16.75;48.37;97677.63;8412954;28;20251;-70
2022/11/08 12:37:39;;;;;;;0.00;0.00;;;;;;;16.91;48.09;97677.34;8413219;28;20250;-74
2022/11/08 12:41:49;;;;;;;0.00;0.00;;;;;;;17.35;46.89;97674.91;8413023;28;20227;-73
2022/11/08 12:45:57;;;;;;;0.00;0.00;;;;;;;17.51;46.67;97685.03;8413100;28;20276;-73
2022/11/08 12:50:10;;;;;;;0.00;0.00;;;;;;;17.31;45.27;97682.16;8412815;28;20230;-73
2022/11/08 12:54:19;;;;;;;0.00;0.00;;;;;;;17.45;44.91;97675.88;8413295;28;20280;-74
2022/11/08 12:58:29;;;;;;;0.00;0.00;;;;;;;17.63;44.91;97683.25;8413037;28;20231;-72
2022/11/08 13:02:37;;;;;;;0.10;0.10;;;;;;;18.01;44.46;97671.59;8412949;28;20545;-74
2022/11/08 13:06:46;;;;;;;0.00;0.00;;;;;;;17.73;44.12;97674.56;8412912;28;20238;-73
2022/11/08 13:10:53;;;;;;;0.00;0.00;;;;;;;17.96;44.60;97664.91;8412578;28;20239;-71
2022/11/08 13:14:59;;;;;;;0.00;0.00;;;;;;;17.41;45.08;97661.34;8411492;28;20515;-73
2022/11/08 13:19:04;;;;;;;0.10;0.10;;;;;;;17.65;45.21;97663.88;8411607;28;20231;-74
2022/11/08 13:23:11;;;;;;;0.00;0.00;;;;;;;17.25;46.98;97668.69;8411714;28;20541;-74
2022/11/08 13:27:25;;;;;;;0.00;0.00;;;;;;;17.32;46.14;97662.06;8411638;28;20237;-74
2022/11/08 13:31:39;;;;;;;0.00;0.00;;;;;;;17.43;46.39;97661.25;8411960;28;20235;-74
2022/11/08 13:35:49;;;;;;;0.00;0.00;;;;;;;17.36;46.78;97656.50;8411600;28;20259;-73
2022/11/08 13:40:16;;;;;;;0.00;0.00;;;;;;;17.02;47.26;97650.38;8411496;28;20240;-74
2022/11/08 13:44:52;;;;;;;0.00;0.00;;;;;;;17.64;45.54;97656.13;8417863;28;20230;-72
2022/11/08 13:49:10;;;;;;;0.00;0.00;;;;;;;17.43;46.40;97674.34;8417397;28;20290;-73
2022/11/08 13:53:25;;;;;;;0.00;0.00;;;;;;;17.35;46.24;97665.28;8417689;28;20503;-72
2022/11/08 13:58:02;;;;;;;0.00;0.00;;;;;;;17.23;46.62;97661.00;8417545;28;20249;-73
2022/11/08 14:02:35;;;;;;;0.03;0.03;;;;;;;17.30;47.57;97664.78;8381541;28;20452;-72
2022/11/08 14:06:44;;;;;;;0.00;0.00;;;;;;;17.80;47.30;97661.84;8416804;28;20293;-73
2022/11/08 14:11:32;;;;;;;0.00;0.00;;;;;;;17.73;46.20;97669.31;8417536;28;20242;-73
2022/11/08 14:15:43;;;;;;;0.00;0.00;;;;;;;17.10;47.86;97665.50;8417035;28;20234;-72
2022/11/08 14:19:46;;;;;;;0.10;0.10;;;;;;;17.06;48.60;97672.75;8416893;28;20242;-72
2022/11/08 14:23:50;;;;;;;0.00;0.00;;;;;;;16.62;49.49;97674.25;8417218;28;20413;-73
2022/11/08 14:27:53;;;;;;;0.00;0.00;;;;;;;16.62;49.91;97671.63;8416673;28;20516;-73
2022/11/08 14:32:05;;;;;;;0.00;0.00;;;;;;;16.02;51.10;97662.88;8416586;28;20542;-73
2022/11/08 14:36:15;;;;;;;0.00;0.00;;;;;;;15.96;51.27;97660.72;8408939;28;20237;-73
2022/11/08 14:40:19;;;;;;;0.00;0.00;;;;;;;15.96;50.68;97673.78;8429710;28;20234;-73
2022/11/08 14:44:23;;;;;;;0.03;0.03;;;;;;;15.96;51.15;97655.50;8416790;28;20522;-73
2022/11/08 14:48:30;;;;;;;0.00;0.00;;;;;;;15.78;51.98;97655.84;8416435;28;20235;-73
2022/11/08 14:52:33;;;;;;;0.00;0.00;;;;;;;15.73;52.21;97657.09;8415977;28;20234;-73
2022/11/08 14:56:38;;;;;;;0.07;0.07;;;;;;;15.60;52.50;97646.66;8416369;28;20258;-73
2022/11/08 15:00:41;;;;;;;0.03;0.03;;;;;;;15.36;53.74;97649.19;8416486;28;20310;-74
2022/11/08 15:04:46;;;;;;;0.10;0.10;;;;;;;15.06;54.21;97647.75;8415351;28;20230;-73
2022/11/08 15:08:51;;;;;;;0.00;0.00;;;;;;;15.11;54.71;97643.03;8415476;28;20548;-73
2022/11/08 15:12:54;;;;;;;0.00;0.00;;;;;;;15.08;54.32;97640.66;8414910;28;20394;-73
2022/11/08 15:16:57;;;;;;;0.00;0.00;;;;;;;15.14;54.13;97647.22;8415134;28;20239;-73
2022/11/08 15:21:07;;;;;;;0.10;0.10;;;;;;;15.01;55.10;97627.19;8414646;28;20303;-73
2022/11/08 15:25:33;;;;;;;0.00;0.00;;;;;;;14.81;55.91;97628.53;8414921;28;20553;-73
2022/11/08 15:29:49;;;;;;;0.00;0.00;;;;;;;15.29;54.17;97632.28;8410303;28;20238;-75
2022/11/08 15:33:52;;;;;;;0.00;0.00;;;;;;;15.28;54.02;97634.06;8414620;28;20549;-73
2022/11/08 15:38:01;;;;;;;0.00;0.00;;;;;;;14.80;55.72;97641.69;8414177;28;20234;-73
2022/11/08 15:42:11;;;;;;;0.00;0.00;;;;;;;15.11;54.96;97640.44;8413947;28;20510;-73
2022/11/08 15:46:27;;;;;;;0.07;0.07;;;;;;;15.29;54.44;97638.38;8414037;28;20231;-73
2022/11/08 15:50:31;;;;;;;0.00;0.00;;;;;;;15.31;54.42;97636.47;8414114;28;20227;-73
2022/11/08 15:54:35;;;;;;;0.00;0.00;;;;;;;15.33;54.34;97636.38;8414521;28;20269;-73
2022/11/08 15:58:38;;;;;;;0.10;0.10;;;;;;;15.35;54.02;97637.94;8414129;28;20239;-73
2022/11/08 16:02:41;;;;;;;0.00;0.00;;;;;;;15.24;54.51;97638.66;8413384;28;20237;-73
2022/11/08 16:06:44;;;;;;;0.00;0.00;;;;;;;15.29;54.11;97622.72;8413526;28;20242;-74
2022/11/08 16:10:51;;;;;;;0.00;0.00;;;;;;;15.29;54.16;97632.28;8413729;28;20251;-74
2022/11/08 16:14:56;;;;;;;0.00;0.00;;;;;;;15.24;54.58;97630.00;8413531;28;20227;-74
2022/11/08 16:18:59;;;;;;;0.00;0.00;;;;;;;15.15;54.70;97631.47;8413902;28;20230;-73
2022/11/08 16:23:04;;;;;;;0.00;0.00;;;;;;;15.18;54.48;97628.66;8413915;28;20234;-71
2022/11/08 16:27:09;;;;;;;0.00;0.00;;;;;;;15.15;54.46;97628.03;8413918;28;20248;-70
2022/11/08 16:31:13;;;;;;;0.00;0.00;;;;;;;15.09;54.77;97626.66;8413221;28;20235;-70
2022/11/08 16:35:17;;;;;;;0.00;0.00;;;;;;;15.19;55.57;97619.03;8413525;28;20253;-72
2022/11/08 16:39:24;;;;;;;0.10;0.10;;;;;;;14.70;56.36;97618.00;8413639;28;20534;-70
2022/11/08 16:43:29;;;;;;;0.00;0.00;;;;;;;14.80;56.58;97615.63;8412274;28;20227;-71
2022/11/08 16:47:34;;;;;;;0.00;0.00;;;;;;;14.83;55.75;97618.00;8413662;28;20242;-71
2022/11/08 16:51:36;;;;;;;0.00;0.00;;;;;;;14.79;56.04;97625.22;8413273;28;20542;-71
2022/11/08 16:55:39;;;;;;;0.10;0.10;;;;;;;14.83;56.03;97626.66;8413278;28;20223;-70
2022/11/08 16:59:43;;;;;;;0.00;0.00;;;;;;;14.48;56.34;97631.56;8413031;28;20246;-70
2022/11/08 17:03:46;;;;;;;0.00;0.00;;;;;;;14.68;55.81;97635.50;8412488;28;20526;-71
2022/11/08 17:07:50;;;;;;;0.10;0.10;;;;;;;14.70;56.06;97638.84;8412384;28;20238;-70
2022/11/08 17:11:55;;;;;;;0.00;0.00;;;;;;;14.64;56.03;97637.47;8411803;28;20265;-70
2022/11/08 17:15:59;;;;;;;0.00;0.00;;;;;;;14.74;55.23;97642.09;8417784;27;20234;-73
2022/11/08 17:20:02;;;;;;;0.10;0.10;;;;;;;14.64;55.30;97640.09;8423400;27;20272;-71
2022/11/08 17:24:05;;;;;;;0.00;0.00;;;;;;;14.62;55.38;97649.78;8423242;28;20237;-71
2022/11/08 17:28:08;;;;;;;0.20;0.10;;;;;;;14.73;55.34;97646.44;8423731;27;20478;-73
2022/11/08 17:32:12;;;;;;;0.00;0.00;;;;;;;14.64;55.38;97654.88;8423417;27;20486;-71
2022/11/08 17:36:15;;;;;;;0.00;0.00;;;;;;;14.48;55.68;97655.00;8423599;27;20226;-71
2022/11/08 17:40:18;;;;;;;0.00;0.00;;;;;;;14.51;55.38;97657.44;8423257;28;20234;-74
2022/11/08 17:44:21;;;;;;;0.10;0.10;;;;;;;14.31;55.98;97657.88;8423386;28;20230;-75
2022/11/08 17:48:25;;;;;;;0.00;0.00;;;;;;;14.37;55.74;97660.91;8423392;27;20226;-75
2022/11/08 17:52:28;;;;;;;0.00;0.00;;;;;;;14.28;56.42;97662.34;8423104;27;20416;-74
2022/11/08 17:56:31;;;;;;;0.00;0.00;;;;;;;13.97;57.05;97665.22;8423305;28;20511;-75
2022/11/08 18:00:33;;;;;;;0.07;0.07;;;;;;;13.89;57.60;97665.72;8423064;28;20234;-78
2022/11/08 18:04:38;;;;;;;0.00;0.00;;;;;;;13.86;57.64;97656.34;8423043;28;20469;-74
2022/11/08 18:08:41;;;;;;;0.07;0.07;;;;;;;13.92;57.20;97657.72;8423116;28;20428;-74
2022/11/08 18:12:44;;;;;;;0.00;0.00;;;;;;;13.62;57.48;97650.88;8423097;28;20348;-73
2022/11/08 18:16:47;;;;;;;0.07;0.07;;;;;;;13.75;57.26;97650.13;8423096;28;20242;-75
2022/11/08 18:20:55;;;;;;;0.10;0.10;;;;;;;13.72;56.99;97651.16;8423135;28;20234;-73
2022/11/08 18:24:57;;;;;;;0.10;0.10;;;;;;;13.77;56.48;97641.28;8422261;27;20509;-75
2022/11/08 18:29:01;;;;;;;0.10;0.10;;;;;;;13.75;56.68;97647.53;8417429;28;20231;-76
2022/11/08 18:33:03;;;;;;;0.00;0.00;;;;;;;13.81;56.39;97652.34;8417675;28;20239;-75
2022/11/08 18:37:08;;;;;;;0.10;0.10;;;;;;;13.86;56.07;97655.50;8417549;28;20414;-75
2022/11/08 18:41:12;;;;;;;0.00;0.00;;;;;;;13.59;56.23;97645.84;8417355;28;20254;-75
2022/11/08 18:45:15;;;;;;;0.00;0.00;;;;;;;13.59;56.28;97637.22;8416906;28;20230;-75
2022/11/08 18:49:17;;;;;;;0.00;0.00;;;;;;;13.54;56.56;97639.28;8417594;28;20226;-76
2022/11/08 18:53:21;;;;;;;0.07;0.07;;;;;;;13.54;56.16;97645.31;8417459;28;20231;-73
2022/11/08 18:57:24;;;;;;;0.10;0.10;;;;;;;14.10;63.50;97639.25;8417017;28;20239;-74
2022/11/08 19:01:27;;;;;;;0.00;0.00;;;;;;;14.68;62.08;97645.09;8416711;28;20264;-71
2022/11/08 19:05:30;;;;;;;0.10;0.10;;;;;;;15.68;57.81;97646.13;8416508;28;20234;-70
2022/11/08 19:09:34;;;;;;;0.00;0.00;;;;;;;14.61;53.81;97644.66;8416378;28;20253;-73
2022/11/08 19:13:38;;;;;;;0.00;0.00;;;;;;;14.29;54.13;97647.56;8416436;28;20237;-73
2022/11/08 19:17:41;;;;;;;0.10;0.10;;;;;;;14.03;54.28;97650.06;8415851;28;20249;-72
2022/11/08 19:21:44;;;;;;;0.00;0.00;;;;;;;13.99;54.97;97646.00;8416115;28;20412;-73
2022/11/08 19:25:55;;;;;;;0.00;0.00;;;;;;;14.02;54.87;97640.56;8415619;28;20234;-74
2022/11/08 19:29:59;;;;;;;0.00;0.00;;;;;;;14.07;54.93;97635.91;8415053;28;20227;-73
2022/11/08 19:34:02;;;;;;;0.07;0.07;;;;;;;13.91;54.82;97639.59;8415351;28;20237;-73
2022/11/08 19:38:05;;;;;;;0.00;0.00;;;;;;;13.77;55.70;97637.88;8414165;28;20241;-73
2022/11/08 19:42:09;;;;;;;0.00;0.00;;;;;;;13.76;55.44;97636.19;8414685;28;20227;-73